Terminal Aerodrome Forecast
Issued by NWS

Home | Current Version | Previous Version | Text Only | Print | Product List | Glossary On
Versions: 1 2 3 4 5 6 7 8 9 10 11 12 13 14
000
FTPA31 PHFO 082329
TAFHOG
TAF
PHOG 082329Z 0900/0924 03010KT P6SM -SHRA SCT025 BKN035 OVC050
      TEMPO 0900/0903 5SM SHRA BR SCT020 BKN025
     FM091100 VRB05KT P6SM VCSH SCT025 BKN035
      AMD LTD TO VIS AND WIND 0909/0916=

USA.gov is the U.S. government's official web portal to all federal, state and local government web resources and services.